Terminal Aerodrome Forecast
Issued by NWS

Home | Current Version | Previous Version | Text Only | Print | Product List | Glossary On
Versions: 1 2 3 4 5 6 7 8 9 10 11 12 13
874
FTUS46 KMTR 041919 AAA
TAFSNS
TAF AMD
KSNS 041919Z 0419/0518 27008KT P6SM VCSH SCT018 BKN200
      TEMPO 0419/0421 BKN018
     FM042100 29014G21KT P6SM VCSH FEW018 SCT250
     FM050200 30011G16KT P6SM VCSH SCT014
     FM050300 29007KT P6SM VCSH BKN012
     FM050500 VRB04KT P6SM VCSH OVC008
     FM051500 16008KT P6SM VCSH SCT012 BKN020
     FM051700 27011KT P6SM VCSH FEW014 FEW030=

USA.gov is the U.S. government's official web portal to all federal, state and local government web resources and services.